メインページ
METAR-TAF:

METAR-TAF

空港 :

高知空港

高知, 日本

緯度: 33-32N, 経度: 133-40E, 海抜: 7m

現時点の気象観測

当レポートは23分前の07:00(UTC)に作成
南/南西の風 5kt
気温 27°C
湿度 79%
気圧 1007 hPa
視程: 8000m
高度2500ftの雲はほとんどない
高度4000ftの千切れ雲あり
弱いにわか雨

METAR: RJOK 200700Z 21005KT 8000 -SHRA FEW025 BKN040 27/23 Q1007

時間: 16:23 (07:23 UTC)

予報

当レポートは2時間16分前の05:07(UTC)に作成
予報は20日の 06時(UTC)から 21日の 12時(UTC)まで有効
南/南西の風 6kt
視程10km以上
高度2000ftの雲はほとんどない
高度3500ftの雲は散在している
20日の 06時(UTC)から 20日の 08時(UTC)まで徐々に
の風 6kt
20日の 21時(UTC)から 21日の 00時(UTC)まで徐々に
南東の風 12kt

TAF: RJOK 200507Z 2006/2112 20006KT 9999 FEW020 SCT035 BECMG 2006/2008 35006KT BECMG 2021/2100 14012KT

4,000以上の空港の気象観測と天気予報(METAR報とTAF報)

利用可能な観測所は地図上に黄色い丸と赤い丸で示す。

丸の上にカーソルを重ねると観測所名を参照できる。

次にクリックすると気象観測と天気予報を参照できる。

マップの切り替え:黒色「×」印の緑ボタンをクリックして拡大、「-」印の緑ボタンをクリックして縮小、緑色の三角印をクリックして隣りの地図に切り替え


METAR-TAF: